Time;durP1;ratioP1;P1;durP2;ratioP2;P2;SDS_P1;SDS_P2;PMS_P1;PMS_P2;Temp;Humidity;BMP_temperature;BMP_pressure;BME280_temperature;BME280_humidity;BME280_pressure;Samples;Min_cycle;Max_cycle;Signal;HPM_P1;HPM_P2
2023/09/23 00:00:56;;;;;;;;;;;13.00;99.90;;;12.99;100.00;99702.00;4972137;28;19918;-84
2023/09/23 00:03:23;;;;;;;;;;;13.00;99.90;;;13.03;100.00;99708.59;4972206;28;19923;-83
2023/09/23 00:05:50;;;;;;;;;;;13.00;99.90;;;13.04;100.00;99694.66;4972038;28;19982;-83
2023/09/23 00:08:18;;;;;;;;;;;13.00;99.90;;;13.07;100.00;99707.84;4972087;28;20290;-84
2023/09/23 00:10:45;;;;;;;;;;;13.00;99.90;;;13.08;100.00;99723.19;4953724;28;19956;-83
2023/09/23 00:13:11;;;;;;;;;;;13.00;99.90;;;13.01;100.00;99725.31;4970665;28;19944;-83
2023/09/23 00:15:41;;;;;;;;;;;12.90;99.90;;;13.01;100.00;99727.19;4954889;28;20445;-84
2023/09/23 00:18:07;;;;;;;;;;;12.90;99.90;;;12.97;100.00;99724.13;4971738;28;20016;-82
2023/09/23 00:20:33;;;;;;;;;;;12.90;99.90;;;12.84;100.00;99716.31;4972038;28;20049;-83
2023/09/23 00:22:59;;;;;;;;;;;12.80;99.90;;;12.65;100.00;99711.16;4971399;28;20365;-83
2023/09/23 00:25:25;;;;;;;;;;;12.70;99.90;;;12.68;100.00;99718.84;4969809;28;19918;-84
2023/09/23 00:27:54;;;;;;;;;;;12.60;99.90;;;12.65;100.00;99722.94;4929607;28;19926;-83
2023/09/23 00:30:22;;;;;;;;;;;12.50;99.90;;;12.56;100.00;99715.41;4970104;28;19939;-83
2023/09/23 00:32:49;;;;;;;;;;;12.50;99.90;;;12.55;100.00;99714.56;4970666;28;19977;-83
2023/09/23 00:35:15;;;;;;;;;;;12.40;99.90;;;12.51;100.00;99719.75;4971577;28;19918;-82
2023/09/23 00:37:43;;;;;;;;;;;12.40;99.90;;;12.47;100.00;99701.34;4964373;28;19934;-83
2023/09/23 00:40:17;;;;;;;;;;;12.40;99.90;;;12.40;100.00;99682.38;4953509;28;20004;-82
2023/09/23 00:42:47;;;;;;;;;;;12.40;99.90;;;12.40;100.00;99695.25;4956392;28;19929;-84
2023/09/23 00:45:15;;;;;;;;;;;12.30;99.90;;;12.30;100.00;99695.91;4970784;28;19921;-84
2023/09/23 00:47:46;;;;;;;;;;;12.20;99.90;;;12.15;100.00;99683.66;4970792;28;20002;-83
2023/09/23 00:50:19;;;;;;;;;;;12.10;99.90;;;12.02;100.00;99684.03;4953961;28;19939;-83
2023/09/23 00:52:52;;;;;;;;;;;12.00;99.90;;;11.99;100.00;99689.97;4953361;28;19930;-83
2023/09/23 00:55:24;;;;;;;;;;;11.90;99.90;;;12.04;100.00;99676.41;4952742;28;20326;-83
2023/09/23 00:57:53;;;;;;;;;;;12.00;99.90;;;12.04;100.00;99665.47;4953361;28;19918;-83
2023/09/23 01:00:27;;;;;;;;;;;12.00;99.90;;;12.12;100.00;99666.94;4944145;28;20004;-83
2023/09/23 01:02:56;;;;;;;;;;;12.00;99.90;;;12.08;100.00;99663.88;4949790;28;19918;-84
2023/09/23 01:05:23;;;;;;;;;;;12.00;99.90;;;12.08;100.00;99656.53;4971477;28;20013;-83
2023/09/23 01:07:49;;;;;;;;;;;12.00;99.90;;;12.13;100.00;99674.06;4941056;28;19918;-83
2023/09/23 01:10:17;;;;;;;;;;;12.00;99.90;;;12.06;100.00;99652.38;4967308;28;19929;-83
2023/09/23 01:12:45;;;;;;;;;;;12.00;99.90;;;12.10;100.00;99659.00;4968324;28;20374;-83
2023/09/23 01:15:12;;;;;;;;;;;12.00;99.90;;;12.22;100.00;99665.19;4966425;28;19918;-82
2023/09/23 01:17:38;;;;;;;;;;;12.10;99.90;;;12.32;100.00;99672.69;4963419;28;19918;-84
2023/09/23 01:20:09;;;;;;;;;;;12.20;99.90;;;12.50;100.00;99676.22;4970854;28;19918;-83
2023/09/23 01:22:36;;;;;;;;;;;12.40;99.90;;;12.63;100.00;99689.53;4971225;28;20009;-85
2023/09/23 01:25:02;;;;;;;;;;;12.70;99.90;;;12.79;100.00;99706.13;4971770;28;19918;-83
2023/09/23 01:27:28;;;;;;;;;;;12.80;99.90;;;12.96;100.00;99727.97;4974283;28;19930;-83
2023/09/23 01:29:54;;;;;;;;;;;12.90;99.90;;;12.98;100.00;99728.53;4954414;28;20389;-82
2023/09/23 01:32:35;;;;;;;;;;;13.10;99.90;;;13.15;100.00;99753.13;4969851;28;19944;-83
2023/09/23 01:35:04;;;;;;;;;;;13.20;99.90;;;13.07;100.00;99756.28;4952562;28;19937;-83
2023/09/23 01:37:31;;;;;;;;;;;13.20;99.90;;;13.15;100.00;99765.97;4970734;28;19984;-84
2023/09/23 01:39:56;;;;;;;;;;;13.20;99.90;;;13.06;100.00;99768.31;4948433;28;19930;-82
2023/09/23 01:42:22;;;;;;;;;;;13.10;99.90;;;13.06;100.00;99769.16;4970804;28;19918;-83
2023/09/23 01:44:48;;;;;;;;;;;13.10;99.90;;;13.08;100.00;99774.38;4971198;28;20021;-84
2023/09/23 01:47:21;;;;;;;;;;;13.10;99.90;;;13.03;100.00;99772.41;4961866;28;19919;-85
2023/09/23 01:49:47;;;;;;;;;;;13.10;99.90;;;13.14;100.00;99778.00;4949028;28;19918;-85
2023/09/23 01:52:16;;;;;;;;;;;13.10;99.90;;;13.14;100.00;99784.34;4966117;28;19938;-84
2023/09/23 01:54:44;;;;;;;;;;;13.10;99.90;;;13.17;100.00;99782.97;4966154;28;19926;-84
2023/09/23 01:57:16;;;;;;;;;;;13.10;99.90;;;13.23;100.00;99784.69;4947849;28;20286;-85
2023/09/23 01:59:43;;;;;;;;;;;13.20;99.90;;;13.13;100.00;99779.09;4950911;28;20031;-83
2023/09/23 02:02:10;;;;;;;;;;;13.20;99.90;;;13.14;100.00;99786.22;4926739;28;20385;-84
2023/09/23 02:04:37;;;;;;;;;;;13.10;99.90;;;13.09;100.00;99785.09;4933280;29;19927;-85
2023/09/23 02:07:04;;;;;;;;;;;13.20;99.90;;;13.16;100.00;99797.75;4955500;28;19919;-84
2023/09/23 02:09:33;;;;;;;;;;;13.10;99.90;;;13.16;100.00;99805.97;4956074;28;19970;-83
2023/09/23 02:12:00;;;;;;;;;;;13.10;99.90;;;13.04;100.00;99808.81;4970124;28;19966;-83
2023/09/23 02:14:26;;;;;;;;;;;13.10;99.90;;;13.02;100.00;99805.50;4969693;28;20326;-83
2023/09/23 02:16:54;;;;;;;;;;;13.10;99.90;;;13.05;100.00;99800.38;4950280;29;19925;-84
2023/09/23 02:19:20;;;;;;;;;;;13.00;99.90;;;13.09;100.00;99800.66;4940362;29;20013;-84
2023/09/23 02:21:47;;;;;;;;;;;13.10;99.90;;;13.18;100.00;99820.22;4932456;28;19969;-83
2023/09/23 02:24:13;;;;;;;;;;;13.10;99.90;;;13.18;100.00;99815.59;4955885;28;19919;-83
2023/09/23 02:26:39;;;;;;;;;;;13.10;99.90;;;13.22;100.00;99829.59;4916456;28;19918;-83
2023/09/23 02:29:06;;;;;;;;;;;13.20;99.90;;;13.20;100.00;99824.38;4938926;29;19928;-82
2023/09/23 02:31:35;;;;;;;;;;;13.20;99.90;;;13.18;100.00;99822.97;4936566;29;19918;-83
2023/09/23 02:34:05;;;;;;;;;;;13.20;99.90;;;13.21;100.00;99827.94;4954493;28;19965;-82
2023/09/23 02:36:33;;;;;;;;;;;13.20;99.90;;;13.23;100.00;99829.34;4929864;28;19932;-82
2023/09/23 02:38:59;;;;;;;;;;;13.20;99.90;;;13.21;100.00;99831.50;4936920;28;19922;-84
2023/09/23 02:41:25;;;;;;;;;;;13.20;99.90;;;13.12;100.00;99824.00;4954512;28;19918;-83
2023/09/23 02:43:52;;;;;;;;;;;13.20;99.90;;;13.11;100.00;99836.84;4921478;29;20009;-85
2023/09/23 02:46:18;;;;;;;;;;;13.10;99.90;;;12.88;100.00;99813.28;4953617;28;20379;-84
2023/09/23 02:48:44;;;;;;;;;;;13.00;99.90;;;12.86;100.00;99831.84;4949628;28;19954;-83
2023/09/23 02:51:12;;;;;;;;;;;12.90;99.90;;;12.79;100.00;99829.28;4929276;29;19961;-84
2023/09/23 02:53:38;;;;;;;;;;;12.80;99.90;;;12.70;100.00;99822.59;4950366;28;19961;-85
2023/09/23 02:56:08;;;;;;;;;;;12.70;99.90;;;12.78;100.00;99838.59;4972869;28;20362;-84
2023/09/23 02:58:34;;;;;;;;;;;12.70;99.90;;;12.68;100.00;99825.56;4950621;28;20295;-83
2023/09/23 03:01:04;;;;;;;;;;;12.70;99.90;;;12.52;100.00;99819.88;4972288;28;19989;-84
2023/09/23 03:03:33;;;;;;;;;;;12.60;99.90;;;12.55;100.00;99845.09;4972374;28;19964;-84
2023/09/23 03:06:02;;;;;;;;;;;12.50;99.90;;;12.43;100.00;99845.16;4971556;28;19934;-83
2023/09/23 03:08:29;;;;;;;;;;;12.50;99.90;;;12.36;100.00;99848.91;4972980;28;19929;-84
2023/09/23 03:10:56;;;;;;;;;;;12.40;99.90;;;12.30;100.00;99851.81;4972746;28;19940;-84
2023/09/23 03:13:23;;;;;;;;;;;12.40;99.90;;;12.29;100.00;99866.56;4971355;28;19918;-84
2023/09/23 03:16:06;;;;;;;;;;;12.30;99.90;;;12.21;100.00;99871.34;4972777;28;20020;-84
2023/09/23 03:18:44;;;;;;;;;;;12.20;99.90;;;12.10;100.00;99874.97;4967112;28;20020;-84
2023/09/23 03:21:10;;;;;;;;;;;12.10;99.90;;;12.03;100.00;99877.84;4971534;28;19929;-85
2023/09/23 03:23:39;;;;;;;;;;;12.10;99.90;;;12.09;100.00;99881.50;4955096;28;20021;-84
2023/09/23 03:26:06;;;;;;;;;;;12.10;99.90;;;12.06;100.00;99898.41;4956664;28;20413;-82
2023/09/23 03:28:36;;;;;;;;;;;12.10;99.90;;;12.11;100.00;99906.69;4971690;28;19929;-82
2023/09/23 03:31:02;;;;;;;;;;;12.10;99.90;;;12.10;100.00;99907.78;4972715;28;19940;-84
2023/09/23 03:33:29;;;;;;;;;;;12.10;99.90;;;12.09;100.00;99908.84;4955686;28;20267;-84
2023/09/23 03:35:55;;;;;;;;;;;12.20;99.90;;;12.14;100.00;99908.94;4941184;28;19937;-83
2023/09/23 03:38:21;;;;;;;;;;;12.30;99.90;;;12.29;100.00;99919.31;4971706;28;20106;-83
2023/09/23 03:40:55;;;;;;;;;;;12.30;99.90;;;12.29;100.00;99913.03;4970432;28;20080;-84
2023/09/23 03:43:22;;;;;;;;;;;12.40;99.90;;;12.41;100.00;99927.47;4949699;28;19918;-83
2023/09/23 03:45:48;;;;;;;;;;;12.50;99.90;;;12.47;100.00;99933.88;4972212;28;19922;-84
2023/09/23 03:48:15;;;;;;;;;;;12.50;99.90;;;12.54;100.00;99941.91;4972612;28;19918;-84
2023/09/23 03:50:41;;;;;;;;;;;12.60;99.90;;;12.48;100.00;99932.78;4972090;28;19918;-84
2023/09/23 03:53:06;;;;;;;;;;;12.60;99.90;;;12.56;100.00;99950.72;4971445;28;20385;-83
2023/09/23 03:55:32;;;;;;;;;;;12.60;99.90;;;12.57;100.00;99957.84;4973067;28;19967;-85
2023/09/23 03:57:58;;;;;;;;;;;12.60;99.90;;;12.54;100.00;99961.06;4953970;28;20016;-84
2023/09/23 04:00:27;;;;;;;;;;;12.60;99.90;;;12.52;100.00;99966.78;4971048;28;19922;-82
2023/09/23 04:02:54;;;;;;;;;;;12.60;99.90;;;12.55;100.00;99970.94;4972030;28;19958;-84
2023/09/23 04:05:21;;;;;;;;;;;12.70;99.90;;;12.68;100.00;99981.56;4971575;28;19918;-83
2023/09/23 04:07:50;;;;;;;;;;;12.70;99.90;;;12.67;100.00;99971.69;4967650;28;20401;-82
2023/09/23 04:10:19;;;;;;;;;;;12.70;99.90;;;12.68;100.00;99991.69;4972037;28;19918;-83
2023/09/23 04:12:46;;;;;;;;;;;12.70;99.90;;;12.68;100.00;99980.75;4972022;28;19922;-83
2023/09/23 04:15:12;;;;;;;;;;;12.70;99.90;;;12.64;100.00;99985.88;4971801;28;19917;-83
2023/09/23 04:17:38;;;;;;;;;;;12.70;99.90;;;12.75;100.00;100001.41;4971377;28;19995;-82
2023/09/23 04:20:09;;;;;;;;;;;12.70;99.90;;;12.67;100.00;99990.84;4972398;28;20009;-84
2023/09/23 04:22:36;;;;;;;;;;;12.80;99.90;;;12.77;100.00;100012.09;4971735;28;19918;-83
2023/09/23 04:25:04;;;;;;;;;;;12.80;99.90;;;12.68;100.00;100003.44;4971616;28;19925;-84
2023/09/23 04:27:31;;;;;;;;;;;12.80;99.90;;;12.58;100.00;99992.34;4971168;28;19918;-84
2023/09/23 04:29:56;;;;;;;;;;;12.70;99.90;;;12.56;100.00;99987.09;4971425;28;19918;-84
2023/09/23 04:32:22;;;;;;;;;;;12.70;99.90;;;12.58;100.00;99992.34;4971435;28;20358;-84
2023/09/23 04:34:48;;;;;;;;;;;12.70;99.90;;;12.54;100.00;99994.72;4971418;28;19945;-86
2023/09/23 04:37:14;;;;;;;;;;;12.70;99.90;;;12.56;100.00;99994.50;4970958;28;19953;-86
2023/09/23 04:39:40;;;;;;;;;;;12.60;99.90;;;12.49;100.00;99995.47;4971438;28;19921;-84
2023/09/23 04:42:05;;;;;;;;;;;12.60;99.90;;;12.50;100.00;100004.50;4971739;28;19965;-84
2023/09/23 04:44:34;;;;;;;;;;;12.50;99.90;;;12.28;100.00;99990.69;4972134;28;19922;-85
2023/09/23 04:47:00;;;;;;;;;;;12.50;99.90;;;12.23;100.00;99975.00;4967640;28;19925;-85
2023/09/23 04:49:27;;;;;;;;;;;12.40;99.90;;;12.28;100.00;100004.38;4971462;28;19980;-88
2023/09/23 04:51:52;;;;;;;;;;;12.30;99.90;;;12.18;100.00;100003.06;4971183;28;19922;-83
2023/09/23 04:54:18;;;;;;;;;;;12.30;99.90;;;12.12;100.00;99993.13;4954595;28;19989;-82
2023/09/23 04:56:44;;;;;;;;;;;12.20;99.90;;;12.02;100.00;99992.94;4970843;28;20312;-86
2023/09/23 04:59:11;;;;;;;;;;;12.10;99.90;;;11.97;100.00;99990.06;4969990;28;19929;-85
2023/09/23 05:01:37;;;;;;;;;;;12.10;99.90;;;11.96;100.00;99981.03;4970159;28;19957;-86
2023/09/23 05:04:08;;;;;;;;;;;12.00;99.90;;;11.97;100.00;99977.22;4970054;28;20408;-85
2023/09/23 05:06:35;;;;;;;;;;;12.00;99.90;;;11.90;100.00;99982.81;4971110;28;19988;-84
2023/09/23 05:09:01;;;;;;;;;;;11.90;99.90;;;11.84;100.00;99978.31;4955492;28;20348;-81
2023/09/23 05:11:27;;;;;;;;;;;11.90;99.90;;;11.71;100.00;99967.66;4971118;28;19964;-83
2023/09/23 05:13:53;;;;;;;;;;;11.80;99.90;;;11.65;100.00;99973.00;4971149;28;20001;-81
2023/09/23 05:16:19;;;;;;;;;;;11.80;99.90;;;11.65;100.00;99970.28;4970115;28;19914;-82
2023/09/23 05:18:46;;;;;;;;;;;11.70;99.90;;;11.60;100.00;99969.34;4971061;28;19940;-83
2023/09/23 05:21:13;;;;;;;;;;;11.60;99.90;;;11.51;100.00;99966.16;4971887;28;19925;-86
2023/09/23 05:23:41;;;;;;;;;;;11.60;99.90;;;11.53;100.00;99972.22;4970124;28;19921;-84
2023/09/23 05:26:07;;;;;;;;;;;11.50;99.90;;;11.48;100.00;99974.84;4970467;28;20333;-80
2023/09/23 05:28:33;;;;;;;;;;;11.50;99.90;;;11.48;100.00;99958.44;4949622;28;19914;-82
2023/09/23 05:30:59;;;;;;;;;;;11.50;99.90;;;11.45;100.00;99950.72;4971649;28;20298;-84
2023/09/23 05:33:25;;;;;;;;;;;11.50;99.90;;;11.50;100.00;99950.84;4969973;28;19918;-84
2023/09/23 05:35:52;;;;;;;;;;;11.50;99.90;;;11.56;100.00;99954.50;4971258;28;19945;-81
2023/09/23 05:38:19;;;;;;;;;;;11.50;99.90;;;11.53;100.00;99950.34;4955384;28;20290;-81
2023/09/23 05:40:46;;;;;;;;;;;11.50;99.90;;;11.58;100.00;99953.19;4975708;28;20362;-86
2023/09/23 05:43:12;;;;;;;;;;;11.50;99.90;;;11.57;100.00;99954.25;4953163;28;20334;-85
2023/09/23 05:45:37;;;;;;;;;;;11.60;99.90;;;11.64;100.00;99956.88;4974458;28;19926;-82
2023/09/23 05:48:05;;;;;;;;;;;11.70;99.90;;;11.61;100.00;99965.56;4973976;28;19924;-85
2023/09/23 05:50:31;;;;;;;;;;;11.70;99.90;;;11.70;100.00;99976.94;4952819;28;19942;-85
2023/09/23 05:52:57;;;;;;;;;;;11.70;99.90;;;11.85;100.00;99992.81;4973231;28;19918;-84
2023/09/23 05:55:23;;;;;;;;;;;11.80;99.90;;;11.83;100.00;100001.25;4975358;28;19962;-82
2023/09/23 05:57:49;;;;;;;;;;;11.90;99.90;;;11.85;100.00;99996.38;4975232;28;19925;-81
2023/09/23 06:00:16;;;;;;;;;;;11.90;99.90;;;11.99;100.00;100029.72;4958037;28;19925;-83
2023/09/23 06:02:44;;;;;;;;;;;12.00;99.90;;;12.02;100.00;100036.66;4974140;28;19918;-80
2023/09/23 06:05:11;;;;;;;;;;;12.00;99.90;;;12.08;100.00;100036.53;4974670;28;20004;-83
2023/09/23 06:07:37;;;;;;;;;;;12.10;99.90;;;12.11;100.00;100042.59;4973872;28;19922;-82
2023/09/23 06:10:04;;;;;;;;;;;12.10;99.90;;;12.19;100.00;100064.91;4973592;28;20001;-81
2023/09/23 06:12:31;;;;;;;;;;;12.20;99.90;;;12.25;100.00;100074.03;4970100;28;19922;-82
2023/09/23 06:14:57;;;;;;;;;;;12.30;99.90;;;12.35;100.00;100087.94;4974471;28;19918;-87
2023/09/23 06:17:24;;;;;;;;;;;12.30;99.90;;;12.38;100.00;100078.41;4971485;28;19914;-86
2023/09/23 06:19:51;;;;;;;;;;;12.40;99.90;;;12.45;100.00;100098.22;4963963;28;19934;-88
2023/09/23 06:22:17;;;;;;;;;;;12.40;99.90;;;12.47;100.00;100095.28;4970012;28;19918;-87
2023/09/23 06:24:43;;;;;;;;;;;12.40;99.90;;;12.48;100.00;100116.09;4975904;28;19936;-88
2023/09/23 06:27:09;;;;;;;;;;;12.50;99.90;;;12.61;100.00;100131.38;4974388;28;19918;-89
2023/09/23 06:29:34;;;;;;;;;;;12.60;99.90;;;12.59;100.00;100128.06;4981178;28;19921;-82
2023/09/23 06:32:00;;;;;;;;;;;12.60;99.90;;;12.67;100.00;100133.16;4970667;28;19918;-85
2023/09/23 06:34:25;;;;;;;;;;;12.70;99.90;;;12.71;100.00;100147.19;4973168;28;19922;-84
2023/09/23 06:36:51;;;;;;;;;;;12.80;99.90;;;12.86;100.00;100168.56;4967648;28;19919;-86
2023/09/23 06:39:17;;;;;;;;;;;12.80;99.90;;;12.99;100.00;100165.50;4973921;28;19918;-86
2023/09/23 06:41:42;;;;;;;;;;;12.90;99.90;;;12.93;100.00;100175.56;4973946;28;19918;-82
2023/09/23 06:44:08;;;;;;;;;;;13.00;99.90;;;13.01;100.00;100185.28;4976615;28;19961;-89
2023/09/23 06:46:34;;;;;;;;;;;13.00;99.90;;;13.05;100.00;100180.97;4952944;28;19921;-85
2023/09/23 06:49:00;;;;;;;;;;;13.10;99.90;;;13.07;100.00;100198.00;4973457;28;20309;-85
2023/09/23 06:51:27;;;;;;;;;;;13.10;99.90;;;13.06;100.00;100187.28;4973816;28;20135;-88
2023/09/23 06:53:52;;;;;;;;;;;13.20;99.90;;;13.07;100.00;100187.03;4974500;28;19929;-89
2023/09/23 06:56:18;;;;;;;;;;;13.20;99.90;;;13.16;100.00;100194.84;4958925;28;19918;-88
2023/09/23 06:58:44;;;;;;;;;;;13.30;99.90;;;13.13;100.00;100212.63;4969784;28;19930;-88
2023/09/23 07:01:09;;;;;;;;;;;13.30;99.90;;;13.05;100.00;100219.31;4957897;28;19922;-87
2023/09/23 07:03:35;;;;;;;;;;;13.30;99.90;;;13.18;100.00;100212.72;4956917;28;19922;-86
2023/09/23 07:06:02;;;;;;;;;;;13.30;99.90;;;13.24;100.00;100224.56;4954244;28;19957;-86
2023/09/23 07:08:28;;;;;;;;;;;13.30;99.90;;;13.28;100.00;100214.81;4951345;28;19918;-83
2023/09/23 07:10:55;;;;;;;;;;;13.40;99.90;;;13.27;100.00;100224.13;4974516;28;19945;-86
2023/09/23 07:13:20;;;;;;;;;;;13.50;99.90;;;13.33;100.00;100225.03;4962296;28;19926;-84
2023/09/23 07:15:46;;;;;;;;;;;13.50;99.90;;;13.41;100.00;100246.56;4974676;28;19925;-83
2023/09/23 07:18:13;;;;;;;;;;;13.50;99.90;;;13.41;100.00;100238.34;4973972;28;20480;-86
2023/09/23 07:20:39;;;;;;;;;;;13.50;99.90;;;13.56;100.00;100246.03;4976626;28;19956;-89
2023/09/23 07:23:05;;;;;;;;;;;13.60;99.90;;;13.53;100.00;100265.72;4957456;28;20024;-87
2023/09/23 07:25:39;;;;;;;;;;;13.70;99.90;;;13.67;100.00;100282.69;4973740;28;19985;-85
2023/09/23 07:28:08;;;;;;;;;;;13.70;99.90;;;13.78;100.00;100278.19;4968469;28;19925;-87
2023/09/23 07:30:34;;;;;;;;;;;13.80;99.90;;;13.89;100.00;100269.09;4940857;28;19925;-85
2023/09/23 07:33:00;;;;;;;;;;;14.00;99.90;;;13.81;100.00;100283.22;4957585;28;19958;-86
2023/09/23 07:35:33;;;;;;;;;;;14.00;99.90;;;13.84;100.00;100284.59;4971405;28;20004;-84
2023/09/23 07:37:59;;;;;;;;;;;14.00;99.90;;;13.79;100.00;100272.47;4973356;28;19973;-85
2023/09/23 07:40:27;;;;;;;;;;;14.00;99.90;;;14.03;100.00;100293.41;4980306;28;19918;-85
2023/09/23 07:42:53;;;;;;;;;;;14.10;99.90;;;14.06;100.00;100296.50;4977364;28;19980;-85
2023/09/23 07:45:18;;;;;;;;;;;14.20;99.90;;;14.14;100.00;100303.50;4962686;28;19918;-86
2023/09/23 07:47:44;;;;;;;;;;;14.30;99.90;;;14.51;100.00;100313.13;4981182;28;20361;-85
2023/09/23 07:50:10;;;;;;;;;;;14.60;99.90;;;14.72;100.00;100321.66;4976625;28;20385;-88
2023/09/23 07:52:38;;;;;;;;;;;14.70;99.90;;;14.90;100.00;100337.06;4965733;28;19918;-84
2023/09/23 07:55:07;;;;;;;;;;;15.00;99.90;;;14.69;100.00;100333.97;4981603;28;19972;-89
2023/09/23 07:57:32;;;;;;;;;;;15.00;99.90;;;14.84;100.00;100354.53;4972339;28;19921;-88
2023/09/23 08:00:01;;;;;;;;;;;15.10;99.90;;;15.10;100.00;100348.28;4976306;28;19928;-85
2023/09/23 08:02:27;;;;;;;;;;;15.20;99.90;;;15.23;100.00;100352.59;4972384;28;19918;-86
2023/09/23 08:04:52;;;;;;;;;;;15.40;99.90;;;15.13;100.00;100351.66;4978779;28;19929;-89
2023/09/23 08:07:18;;;;;;;;;;;15.40;99.90;;;15.31;100.00;100351.31;4984178;28;20012;-85
2023/09/23 08:09:44;;;;;;;;;;;15.40;99.90;;;15.20;100.00;100347.59;4960839;28;19918;-84
2023/09/23 08:12:10;;;;;;;;;;;15.40;99.90;;;14.88;100.00;100355.69;4988906;28;19917;-83
2023/09/23 08:14:36;;;;;;;;;;;15.20;99.90;;;14.73;100.00;100361.81;4985685;28;20313;-88
2023/09/23 08:17:02;;;;;;;;;;;15.00;99.90;;;14.72;100.00;100360.97;4977153;28;19926;-87
2023/09/23 08:19:28;;;;;;;;;;;14.90;99.90;;;14.67;100.00;100366.34;4980121;28;19961;-85
2023/09/23 08:21:53;;;;;;;;;;;14.80;99.90;;;14.67;100.00;100372.66;4964617;28;19969;-85
2023/09/23 08:24:20;;;;;;;;;;;14.90;99.90;;;14.68;100.00;100379.00;4974466;28;19921;-86
2023/09/23 08:26:46;;;;;;;;;;;14.90;99.90;;;14.75;100.00;100389.84;4976038;28;20024;-84
2023/09/23 08:29:12;;;;;;;;;;;15.00;99.90;;;14.93;100.00;100391.47;4970881;28;19926;-83
2023/09/23 08:31:38;;;;;;;;;;;15.10;99.90;;;14.72;100.00;100388.41;4978011;28;19949;-79
2023/09/23 08:34:09;;;;;;;;;;;15.00;99.90;;;14.74;100.00;100389.00;4981864;28;19918;-80
2023/09/23 08:36:37;;;;;;;;;;;15.00;99.90;;;14.90;100.00;100403.78;4978826;28;19918;-86
2023/09/23 08:39:07;;;;;;;;;;;15.00;99.90;;;14.56;100.00;100384.56;4976051;28;20370;-85
2023/09/23 08:41:33;;;;;;;;;;;14.90;99.90;;;14.89;100.00;100417.78;4972212;28;20008;-86
2023/09/23 08:44:04;;;;;;;;;;;15.00;99.90;;;15.02;100.00;100424.84;4969559;28;19969;-84
2023/09/23 08:46:31;;;;;;;;;;;15.10;99.90;;;15.20;100.00;100418.22;4982993;28;19922;-84
2023/09/23 08:48:58;;;;;;;;;;;15.30;99.90;;;15.26;100.00;100428.19;4978829;28;19925;-87
2023/09/23 08:51:25;;;;;;;;;;;15.40;99.90;;;15.32;100.00;100432.66;4974254;28;19925;-87
2023/09/23 08:53:52;;;;;;;;;;;15.50;99.90;;;15.32;100.00;100429.91;4951592;28;19998;-84
2023/09/23 08:56:18;;;;;;;;;;;15.50;99.90;;;15.67;100.00;100437.00;4951150;28;19918;-86
2023/09/23 08:58:45;;;;;;;;;;;15.70;99.90;;;15.52;100.00;100431.28;4953067;29;19918;-82
2023/09/23 09:01:11;;;;;;;;;;;15.80;99.90;;;15.42;100.00;100436.66;4936743;28;20299;-89
2023/09/23 09:03:37;;;;;;;;;;;15.70;99.90;;;15.49;100.00;100448.28;4960251;28;19918;-86
2023/09/23 09:06:03;;;;;;;;;;;15.70;99.90;;;15.52;100.00;100450.53;4939966;28;19945;-85
2023/09/23 09:08:32;;;;;;;;;;;15.70;99.90;;;15.63;100.00;100457.00;4953690;29;19919;-85
2023/09/23 09:10:58;;;;;;;;;;;15.70;99.90;;;15.41;100.00;100454.25;4958041;28;19928;-83
2023/09/23 09:13:24;;;;;;;;;;;15.70;99.90;;;15.46;100.00;100459.81;4957314;28;19928;-85
2023/09/23 09:15:50;;;;;;;;;;;15.60;99.90;;;15.45;100.00;100458.94;4948120;28;19919;-83
2023/09/23 09:18:17;;;;;;;;;;;15.60;99.90;;;15.50;100.00;100461.75;4953153;28;20026;-87
2023/09/23 09:20:42;;;;;;;;;;;15.60;99.90;;;15.66;100.00;100460.06;4953226;28;19989;-85
2023/09/23 09:23:13;;;;;;;;;;;15.70;99.90;;;15.56;100.00;100459.94;4953121;28;20375;-84
2023/09/23 09:25:43;;;;;;;;;;;15.70;99.90;;;15.76;100.00;100472.28;4953150;28;19914;-85
2023/09/23 09:28:12;;;;;;;;;;;15.90;99.90;;;16.08;100.00;100471.59;4951740;28;19932;-83
2023/09/23 09:30:38;;;;;;;;;;;16.10;99.90;;;16.25;100.00;100469.56;4952918;28;19915;-86
2023/09/23 09:33:07;;;;;;;;;;;16.30;99.90;;;16.56;100.00;100481.97;4959328;28;19918;-84
2023/09/23 09:35:33;;;;;;;;;;;16.60;99.90;;;16.25;100.00;100488.00;4953525;28;19921;-83
2023/09/23 09:38:05;;;;;;;;;;;16.50;99.90;;;16.17;100.00;100483.78;4953533;28;19923;-83
2023/09/23 09:40:32;;;;;;;;;;;16.40;99.90;;;16.27;100.00;100493.25;4955647;28;19926;-82
2023/09/23 09:42:59;;;;;;;;;;;16.40;99.90;;;16.27;100.00;100496.81;4955069;28;19918;-83
2023/09/23 09:45:26;;;;;;;;;;;16.50;99.90;;;16.06;100.00;100495.78;4953025;28;19993;-82
2023/09/23 09:47:57;;;;;;;;;;;16.30;99.90;;;16.28;100.00;100497.66;4931958;28;20010;-81
2023/09/23 09:50:23;;;;;;;;;;;16.40;99.90;;;16.63;100.00;100499.09;4953148;28;19925;-83
2023/09/23 09:52:49;;;;;;;;;;;16.80;99.90;;;16.75;100.00;100508.06;4965427;28;19922;-81
2023/09/23 09:55:18;;;;;;;;;;;17.10;99.90;;;17.09;100.00;100510.56;4970830;28;19925;-81
2023/09/23 09:57:45;;;;;;;;;;;;;;;17.64;100.00;100510.34;4955490;28;19926;-81
2023/09/23 10:00:20;;;;;;;;;;;;;;;18.08;100.00;100516.66;4966477;28;19922;-81
2023/09/23 10:02:48;;;;;;;;;;;17.80;99.90;;;17.96;100.00;100514.09;4952733;28;19926;-83
2023/09/23 10:05:17;;;;;;;;;;;18.70;99.90;;;17.72;100.00;100519.22;4971968;28;19999;-82
2023/09/23 10:07:55;;;;;;;;;;;18.30;99.90;;;18.44;100.00;100525.03;4972983;28;19918;-81
2023/09/23 10:10:31;;;;;;;;;;;18.70;99.90;;;18.03;100.00;100517.44;4972119;28;19918;-84
2023/09/23 10:13:11;;;;;;;;;;;18.40;99.90;;;18.92;100.00;100524.78;4971135;28;19918;-82
2023/09/23 10:15:40;;;;;;;;;;;18.80;99.90;;;18.40;100.00;100524.72;4969405;28;19918;-84
2023/09/23 10:18:19;;;;;;;;;;;18.80;99.90;;;18.29;100.00;100534.09;4970639;28;20032;-83
2023/09/23 10:20:54;;;;;;;;;;;18.60;99.90;;;19.51;100.00;100538.34;4970530;28;19929;-82
2023/09/23 10:23:21;;;;;;;;;;;19.10;99.90;;;19.09;100.00;100521.78;4970055;28;19918;-81
2023/09/23 10:25:51;;;;;;;;;;;19.30;99.90;;;18.24;100.00;100540.44;4974636;28;19922;-83
2023/09/23 10:28:24;;;;;;;;;;;;;;;17.61;100.00;100545.91;4957929;28;20009;-82
2023/09/23 10:31:00;;;;;;;;;;;;;;;17.71;100.00;100545.13;4974072;28;19945;-82
2023/09/23 10:33:30;;;;;;;;;;;;;;;18.33;100.00;100546.25;4975237;28;20000;-84
2023/09/23 10:35:58;;;;;;;;;;;;;;;18.02;100.00;100548.06;4958670;28;19918;-83
2023/09/23 10:38:24;;;;;;;;;;;;;;;17.79;100.00;100550.97;4970723;28;19918;-84
2023/09/23 10:40:54;;;;;;;;;;;18.70;99.90;;;17.35;100.00;100554.00;4974489;28;19922;-81
2023/09/23 10:43:23;;;;;;;;;;;17.70;99.90;;;17.44;100.00;100557.09;4974480;28;19922;-83
2023/09/23 10:45:51;;;;;;;;;;;17.60;99.90;;;17.28;100.00;100564.44;4951945;28;19922;-80
2023/09/23 10:48:17;;;;;;;;;;;17.60;99.90;;;17.31;100.00;100556.47;4959096;28;19940;-82
2023/09/23 10:50:44;;;;;;;;;;;17.50;99.90;;;17.67;100.00;100551.19;4953758;28;20429;-82
2023/09/23 10:53:11;;;;;;;;;;;17.70;99.90;;;18.52;100.00;100556.81;4975975;28;19918;-81
2023/09/23 10:55:39;;;;;;;;;;;18.20;99.90;;;18.94;100.00;100557.69;4973705;28;19922;-83
2023/09/23 10:58:08;;;;;;;;;;;18.90;99.90;;;20.26;99.48;100553.31;4974376;28;20368;-82
2023/09/23 11:00:36;;;;;;;;;;;;;;;20.70;94.02;100560.03;4976626;28;19918;-82
2023/09/23 11:03:06;;;;;;;;;;;;;;;19.95;95.84;100567.28;4983767;28;19922;-82
2023/09/23 11:05:35;;;;;;;;;;;;;;;19.96;97.79;100564.25;4956896;28;19918;-80
2023/09/23 11:08:01;;;;;;;;;;;;;;;20.29;96.58;100565.78;4941919;28;19918;-82
2023/09/23 11:10:27;;;;;;;;;;;;;;;20.95;91.38;100567.34;4976475;28;20013;-83